createdAt,value
2023-08-31T00:00:18.208Z,99935.47
2023-08-31T00:03:20.680Z,99942.09
2023-08-31T00:06:22.983Z,99932.63
2023-08-31T00:09:25.655Z,99937.50
2023-08-31T00:12:27.271Z,99934.72
2023-08-31T00:15:30.284Z,99940.13
2023-08-31T00:18:31.973Z,99941.59
2023-08-31T00:21:34.207Z,99947.50
2023-08-31T00:24:37.818Z,99937.13
2023-08-31T00:27:39.531Z,99938.84
2023-08-31T00:30:41.429Z,99943.16
2023-08-31T00:33:44.340Z,99942.16
2023-08-31T00:36:46.038Z,99940.25
2023-08-31T00:39:48.381Z,99950.97
2023-08-31T00:42:50.037Z,99949.94
2023-08-31T00:45:54.003Z,99961.81
2023-08-31T00:48:55.876Z,99963.91
2023-08-31T00:51:58.693Z,99969.50
2023-08-31T00:55:01.114Z,99967.75
2023-08-31T00:58:02.737Z,99961.81
2023-08-31T01:01:14.912Z,99982.53
2023-08-31T01:04:41.398Z,99967.69
2023-08-31T01:07:58.474Z,99951.06
2023-08-31T01:11:22.954Z,99962.63
2023-08-31T01:14:28.956Z,99970.13
2023-08-31T01:17:33.004Z,99973.06
2023-08-31T01:20:52.698Z,99973.00
2023-08-31T01:23:56.446Z,99973.34
2023-08-31T01:26:58.437Z,99968.50
2023-08-31T01:30:00.678Z,99958.22
2023-08-31T01:33:03.477Z,99973.81
2023-08-31T01:36:29.517Z,99968.41
2023-08-31T01:39:39.917Z,99981.06
2023-08-31T01:42:46.026Z,99973.81
2023-08-31T01:45:48.116Z,99975.56
2023-08-31T01:48:49.818Z,99981.06
2023-08-31T01:51:51.402Z,99961.03
2023-08-31T01:54:53.057Z,99974.84
2023-08-31T01:57:54.689Z,99976.03
2023-08-31T02:00:57.047Z,99979.88
2023-08-31T02:03:58.828Z,99973.16
2023-08-31T02:07:00.476Z,99985.47
2023-08-31T02:10:02.137Z,99978.41
2023-08-31T02:13:03.888Z,99992.06
2023-08-31T02:16:05.671Z,99982.97
2023-08-31T02:19:07.309Z,99986.13
2023-08-31T02:22:09.103Z,99996.13
2023-08-31T02:25:10.737Z,99994.81
2023-08-31T02:28:12.537Z,99991.63
2023-08-31T02:31:17.995Z,99992.53
2023-08-31T02:34:19.641Z,99987.94
2023-08-31T02:37:21.278Z,99985.28
2023-08-31T02:40:22.880Z,99990.50
2023-08-31T02:43:26.481Z,99982.06
2023-08-31T02:46:28.177Z,99985.09
2023-08-31T02:49:29.830Z,99985.44
2023-08-31T02:52:31.410Z,99983.31
2023-08-31T02:55:36.105Z,99981.59
2023-08-31T02:58:40.297Z,99988.16
2023-08-31T03:01:42.375Z,99995.66
2023-08-31T03:04:44.048Z,99990.91
2023-08-31T03:07:45.771Z,99995.56
2023-08-31T03:10:47.328Z,100004.03
2023-08-31T03:13:48.887Z,99992.50
2023-08-31T03:16:50.546Z,99998.69
2023-08-31T03:19:52.155Z,100003.22
2023-08-31T03:22:53.844Z,100003.94
2023-08-31T03:25:55.585Z,100007.75
2023-08-31T03:28:57.337Z,100015.78
2023-08-31T03:32:00.835Z,100002.84
2023-08-31T03:35:05.775Z,100010.00
2023-08-31T03:38:07.468Z,100011.22
2023-08-31T03:41:09.065Z,100013.50
2023-08-31T03:44:10.635Z,100018.06
2023-08-31T03:47:12.225Z,100014.09
2023-08-31T03:50:14.042Z,100021.56
2023-08-31T03:53:15.622Z,100019.44
2023-08-31T03:56:17.255Z,100020.44
2023-08-31T03:59:19.484Z,100030.03
2023-08-31T04:02:21.140Z,100026.41
2023-08-31T04:05:22.795Z,100029.22
2023-08-31T04:08:24.467Z,100027.41
2023-08-31T04:11:27.396Z,100023.09
2023-08-31T04:14:29.022Z,100023.44
2023-08-31T04:17:30.894Z,100023.91
2023-08-31T04:20:34.593Z,100010.00
2023-08-31T04:23:36.261Z,100032.69
2023-08-31T04:26:37.957Z,100043.28
2023-08-31T04:29:39.643Z,100037.16
2023-08-31T04:32:41.470Z,100046.78
2023-08-31T04:35:43.354Z,100052.94
2023-08-31T04:38:45.005Z,100057.38
2023-08-31T04:41:46.619Z,100060.69
2023-08-31T04:44:48.358Z,100056.69
2023-08-31T04:47:51.993Z,100070.28
2023-08-31T04:50:58.158Z,100072.47
2023-08-31T04:54:00.545Z,100085.44
2023-08-31T04:57:02.183Z,100100.19
2023-08-31T05:00:05.947Z,100089.03
2023-08-31T05:03:08.722Z,100090.84
2023-08-31T05:06:10.479Z,100105.22
2023-08-31T05:09:12.177Z,100106.38
2023-08-31T05:12:13.796Z,100111.69
2023-08-31T05:15:15.568Z,100124.44
2023-08-31T05:18:17.223Z,100130.19
2023-08-31T05:21:18.856Z,100129.44
2023-08-31T05:24:20.451Z,100145.75
2023-08-31T05:27:22.149Z,100134.13
2023-08-31T05:30:23.750Z,100142.63
2023-08-31T05:33:30.134Z,100141.72
2023-08-31T05:36:31.851Z,100139.75
2023-08-31T05:39:33.518Z,100140.66
2023-08-31T05:42:35.123Z,100140.19
2023-08-31T05:45:39.183Z,100137.69
2023-08-31T05:48:40.811Z,100149.59
2023-08-31T05:51:42.394Z,100137.72
2023-08-31T05:54:43.974Z,100145.56
2023-08-31T05:57:45.554Z,100163.59
2023-08-31T06:00:47.149Z,100166.63
2023-08-31T06:03:49.618Z,100157.75
2023-08-31T06:06:55.045Z,100171.66
2023-08-31T06:09:57.780Z,100175.84
2023-08-31T06:12:59.444Z,100174.06
2023-08-31T06:16:01.254Z,100175.00
2023-08-31T06:19:03.336Z,100176.03
2023-08-31T06:22:05.159Z,100186.88
2023-08-31T06:39:32.356Z,100194.47
2023-08-31T06:42:33.951Z,100195.53
2023-08-31T06:45:35.718Z,100195.44
2023-08-31T06:48:37.389Z,100206.06
2023-08-31T06:51:39.061Z,100197.69
2023-08-31T06:54:40.697Z,100205.00
2023-08-31T06:57:43.081Z,100206.66
2023-08-31T07:00:44.707Z,100213.06
2023-08-31T07:03:47.225Z,100219.25
2023-08-31T07:19:48.035Z,100221.38
2023-08-31T07:22:49.857Z,100228.19
2023-08-31T07:25:51.476Z,100234.81
2023-08-31T07:28:53.112Z,100224.91
2023-08-31T07:31:54.852Z,100231.91
2023-08-31T07:34:56.499Z,100232.53
2023-08-31T07:37:58.172Z,100238.50
2023-08-31T07:40:59.932Z,100235.00
2023-08-31T07:44:04.512Z,100235.97
2023-08-31T07:47:07.097Z,100233.31
2023-08-31T08:02:25.317Z,100259.53
2023-08-31T08:05:27.015Z,100255.28
2023-08-31T08:08:28.713Z,100253.66
2023-08-31T08:11:30.356Z,100256.13
2023-08-31T08:14:32.102Z,100266.22
2023-08-31T08:17:33.801Z,100255.72
2023-08-31T08:20:35.497Z,100268.59
2023-08-31T08:23:37.215Z,100270.00
2023-08-31T08:26:38.811Z,100266.97
2023-08-31T08:29:40.432Z,100257.81
2023-08-31T08:32:42.880Z,100269.84
2023-08-31T08:35:44.551Z,100262.78
2023-08-31T08:38:46.194Z,100275.16
2023-08-31T08:41:48.229Z,100274.31
2023-08-31T08:44:50.090Z,100282.97
2023-08-31T08:47:52.967Z,100280.44
2023-08-31T08:50:55.415Z,100289.72
2023-08-31T08:53:59.778Z,100292.88
2023-08-31T08:57:02.138Z,100283.16
2023-08-31T09:00:04.701Z,100296.16
2023-08-31T09:03:06.464Z,100297.97
2023-08-31T09:06:09.319Z,100305.59
2023-08-31T09:09:11.204Z,100301.19
2023-08-31T09:12:12.827Z,100303.72
2023-08-31T09:15:14.432Z,100295.16
2023-08-31T09:18:27.041Z,100303.84
2023-08-31T09:21:38.520Z,100300.19
2023-08-31T09:24:44.177Z,100295.97
2023-08-31T09:27:45.969Z,100306.34
2023-08-31T09:30:49.298Z,100310.22
2023-08-31T09:33:52.356Z,100303.66
2023-08-31T09:36:54.123Z,100308.31
2023-08-31T09:39:55.760Z,100313.63
2023-08-31T09:42:57.401Z,100328.03
2023-08-31T09:46:00.992Z,100319.88
2023-08-31T09:49:02.768Z,100332.41
2023-08-31T09:52:06.037Z,100325.81
2023-08-31T09:55:08.937Z,100322.75
2023-08-31T09:58:16.508Z,100333.50
2023-08-31T10:01:28.905Z,100332.22
2023-08-31T10:04:33.442Z,100342.00
2023-08-31T10:07:35.649Z,100328.38
2023-08-31T10:10:38.465Z,100336.81
2023-08-31T10:13:42.301Z,100345.44
2023-08-31T10:16:46.048Z,100336.28
2023-08-31T10:19:47.989Z,100344.66
2023-08-31T10:22:50.074Z,100328.13
2023-08-31T10:25:51.740Z,100338.34
2023-08-31T10:28:54.187Z,100341.44
2023-08-31T10:31:55.818Z,100341.84
2023-08-31T10:35:08.508Z,100346.22
2023-08-31T10:38:16.563Z,100345.94
2023-08-31T10:41:20.849Z,100344.91
2023-08-31T10:44:27.656Z,100340.00
2023-08-31T10:47:45.916Z,100343.63
2023-08-31T10:50:50.771Z,100348.56
2023-08-31T10:53:52.536Z,100351.84
2023-08-31T10:57:06.137Z,100365.06
2023-08-31T11:00:09.222Z,100350.78
2023-08-31T11:03:14.159Z,100356.19
2023-08-31T11:06:16.098Z,100363.63
2023-08-31T11:09:22.523Z,100360.78
2023-08-31T11:12:25.122Z,100358.19
2023-08-31T11:15:28.203Z,100360.13
2023-08-31T11:18:30.099Z,100356.78
2023-08-31T11:21:32.960Z,100361.59
2023-08-31T11:24:34.928Z,100371.44
2023-08-31T11:27:36.560Z,100368.53
2023-08-31T11:30:38.257Z,100372.56
2023-08-31T11:33:39.850Z,100371.66
2023-08-31T11:36:45.712Z,100376.16
2023-08-31T11:39:54.896Z,100380.53
2023-08-31T11:42:58.718Z,100368.75
2023-08-31T11:46:01.894Z,100374.88
2023-08-31T11:49:07.058Z,100374.97
2023-08-31T11:52:11.745Z,100370.03
2023-08-31T11:55:15.596Z,100373.06
2023-08-31T11:58:17.222Z,100373.28
2023-08-31T12:01:21.287Z,100369.47
2023-08-31T12:04:26.792Z,100368.69
2023-08-31T12:07:28.764Z,100367.72
2023-08-31T12:10:30.563Z,100365.44
2023-08-31T12:13:32.513Z,100367.41
2023-08-31T12:16:37.576Z,100358.59
2023-08-31T12:19:40.469Z,100359.25
2023-08-31T12:22:42.083Z,100359.25
2023-08-31T12:25:48.816Z,100357.25
2023-08-31T12:28:50.574Z,100364.53
2023-08-31T12:31:52.276Z,100353.53
2023-08-31T12:34:53.905Z,100355.66
2023-08-31T12:37:55.718Z,100350.25
2023-08-31T12:40:57.481Z,100358.91
2023-08-31T12:43:59.228Z,100371.13
2023-08-31T12:47:00.860Z,100366.13
2023-08-31T12:50:04.241Z,100366.91
2023-08-31T12:53:05.822Z,100360.53
2023-08-31T12:56:07.497Z,100355.97
2023-08-31T12:59:09.103Z,100373.94
2023-08-31T13:02:13.481Z,100364.41
2023-08-31T13:05:15.194Z,100353.59
2023-08-31T13:08:16.816Z,100358.75
2023-08-31T13:11:24.287Z,100364.16
2023-08-31T13:14:25.928Z,100352.78
2023-08-31T13:17:28.691Z,100354.50
2023-08-31T13:20:31.797Z,100352.44
2023-08-31T13:23:33.467Z,100345.38
2023-08-31T13:26:35.134Z,100352.50
2023-08-31T13:29:36.946Z,100355.44
2023-08-31T13:32:38.655Z,100352.13
2023-08-31T13:35:40.290Z,100340.66
2023-08-31T13:38:41.963Z,100344.06
2023-08-31T13:41:43.580Z,100347.59
2023-08-31T13:44:45.158Z,100355.28
2023-08-31T13:47:50.229Z,100356.03
2023-08-31T13:50:51.864Z,100354.09
2023-08-31T13:53:53.488Z,100354.34
2023-08-31T13:56:55.137Z,100360.09
2023-08-31T13:59:56.754Z,100369.63
2023-08-31T14:02:59.825Z,100369.13
2023-08-31T14:06:01.660Z,100357.84
2023-08-31T14:09:03.726Z,100365.13
2023-08-31T14:12:05.797Z,100358.03
2023-08-31T14:15:08.062Z,100367.97
2023-08-31T14:18:09.710Z,100367.91
2023-08-31T14:21:16.577Z,100355.72
2023-08-31T14:24:18.539Z,100355.91
2023-08-31T14:27:20.125Z,100365.44
2023-08-31T14:30:21.710Z,100363.22
2023-08-31T14:33:23.326Z,100367.50
2023-08-31T14:36:27.135Z,100356.59
2023-08-31T14:39:31.501Z,100378.63
2023-08-31T14:42:33.192Z,100373.75
2023-08-31T14:45:34.792Z,100367.69
2023-08-31T14:48:36.514Z,100370.53
2023-08-31T14:51:38.247Z,100374.50
2023-08-31T14:54:39.919Z,100371.13
2023-08-31T14:57:43.480Z,100377.84
2023-08-31T15:00:45.318Z,100365.97
2023-08-31T15:03:47.092Z,100376.75
2023-08-31T15:06:48.889Z,100377.56
2023-08-31T15:09:51.316Z,100377.09
2023-08-31T15:12:56.573Z,100385.09
2023-08-31T15:16:00.158Z,100396.09
2023-08-31T15:19:02.059Z,100400.41
2023-08-31T15:22:05.189Z,100395.81
2023-08-31T15:25:07.533Z,100395.03
2023-08-31T15:28:10.159Z,100394.56
2023-08-31T15:31:15.299Z,100398.13
2023-08-31T15:34:17.152Z,100397.66
2023-08-31T15:37:19.140Z,100397.75
2023-08-31T15:40:20.900Z,100397.41
2023-08-31T15:43:22.839Z,100403.75
2023-08-31T15:46:24.528Z,100393.88
2023-08-31T15:49:26.583Z,100403.44
2023-08-31T15:52:28.150Z,100400.22
2023-08-31T15:55:29.773Z,100403.66
2023-08-31T15:58:31.459Z,100398.13
2023-08-31T16:01:33.180Z,100402.44
2023-08-31T16:04:35.651Z,100402.84
2023-08-31T16:07:38.948Z,100410.59
2023-08-31T16:10:40.590Z,100406.53
2023-08-31T16:13:43.175Z,100412.59
2023-08-31T16:16:45.039Z,100417.19
2023-08-31T16:19:46.697Z,100424.50
2023-08-31T16:22:48.333Z,100427.84
2023-08-31T16:25:50.919Z,100418.91
2023-08-31T16:28:52.521Z,100425.94
2023-08-31T16:31:54.176Z,100411.19
2023-08-31T16:34:55.982Z,100417.41
2023-08-31T16:37:57.620Z,100428.84
2023-08-31T16:40:59.299Z,100435.25
2023-08-31T16:44:00.978Z,100428.19
2023-08-31T16:47:02.810Z,100437.16
2023-08-31T16:50:05.036Z,100434.56
2023-08-31T16:53:07.107Z,100440.63
2023-08-31T16:56:08.995Z,100433.84
2023-08-31T16:59:10.645Z,100450.19
2023-08-31T17:02:13.083Z,100444.25
2023-08-31T17:05:15.627Z,100444.22
2023-08-31T17:08:17.350Z,100451.88
2023-08-31T17:11:19.057Z,100453.06
2023-08-31T17:14:20.914Z,100456.56
2023-08-31T17:17:26.532Z,100462.31
2023-08-31T17:20:31.239Z,100468.81
2023-08-31T17:23:33.236Z,100466.03
2023-08-31T17:26:34.891Z,100469.25
2023-08-31T17:29:36.577Z,100474.91
2023-08-31T17:32:38.531Z,100475.25
2023-08-31T17:35:40.182Z,100481.13
2023-08-31T17:38:43.286Z,100479.97
2023-08-31T17:41:46.091Z,100483.56
2023-08-31T17:44:48.831Z,100479.31
2023-08-31T17:47:50.537Z,100488.66
2023-08-31T17:50:52.151Z,100499.69
2023-08-31T17:53:56.163Z,100493.78
2023-08-31T17:56:57.812Z,100500.69
2023-08-31T17:59:59.839Z,100510.84
2023-08-31T18:03:01.578Z,100510.22
2023-08-31T18:06:04.145Z,100503.22
2023-08-31T18:09:06.475Z,100520.63
2023-08-31T18:12:09.480Z,100515.75
2023-08-31T18:15:11.235Z,100525.59
2023-08-31T18:18:12.869Z,100527.16
2023-08-31T18:21:14.551Z,100520.00
2023-08-31T18:24:16.153Z,100522.47
2023-08-31T18:27:17.783Z,100529.56
2023-08-31T18:30:19.428Z,100538.97
2023-08-31T18:33:21.391Z,100544.38
2023-08-31T18:36:23.097Z,100555.22
2023-08-31T18:39:26.220Z,100556.28
2023-08-31T18:42:28.747Z,100567.16
2023-08-31T18:45:30.368Z,100562.22
2023-08-31T18:48:32.042Z,100572.03
2023-08-31T18:51:38.252Z,100568.56
2023-08-31T18:54:40.019Z,100579.06
2023-08-31T18:57:41.737Z,100584.16
2023-08-31T19:00:43.460Z,100589.78
2023-08-31T19:03:45.196Z,100579.38
2023-08-31T19:06:46.890Z,100584.84
2023-08-31T19:10:02.325Z,100594.84
2023-08-31T19:13:08.847Z,100589.69
2023-08-31T19:16:11.349Z,100595.88
2023-08-31T19:19:13.004Z,100597.81
2023-08-31T19:22:14.639Z,100590.63
2023-08-31T19:25:20.136Z,100599.16
2023-08-31T19:28:21.913Z,100607.81
2023-08-31T19:31:23.583Z,100605.41
2023-08-31T19:34:26.650Z,100607.75
2023-08-31T19:37:33.552Z,100608.53
2023-08-31T19:40:35.352Z,100605.25
2023-08-31T19:43:36.969Z,100608.84
2023-08-31T19:46:38.897Z,100609.03
2023-08-31T19:49:40.493Z,100600.97
2023-08-31T19:52:42.142Z,100611.47
2023-08-31T19:55:43.772Z,100598.44
2023-08-31T19:58:45.405Z,100612.59
2023-08-31T20:01:47.075Z,100615.94
2023-08-31T20:04:48.896Z,100614.97
2023-08-31T20:07:51.685Z,100613.03
2023-08-31T20:10:53.339Z,100615.28
2023-08-31T20:13:57.230Z,100599.34
2023-08-31T20:16:58.851Z,100612.00
2023-08-31T20:20:00.502Z,100617.84
2023-08-31T20:23:04.600Z,100612.00
2023-08-31T20:26:06.261Z,100613.56
2023-08-31T20:29:07.985Z,100622.25
2023-08-31T20:32:09.932Z,100626.75
2023-08-31T20:35:13.503Z,100637.09
2023-08-31T20:38:15.647Z,100640.59
2023-08-31T20:41:18.058Z,100637.44
2023-08-31T20:44:19.665Z,100643.28
2023-08-31T20:47:21.437Z,100649.63
2023-08-31T20:50:23.470Z,100648.47
2023-08-31T20:53:25.105Z,100646.28
2023-08-31T20:56:27.519Z,100647.28
2023-08-31T20:59:30.505Z,100650.59
2023-08-31T21:02:32.590Z,100649.78
2023-08-31T21:05:34.237Z,100652.41
2023-08-31T21:08:36.516Z,100659.72
2023-08-31T21:11:38.168Z,100663.53
2023-08-31T21:14:39.805Z,100668.69
2023-08-31T21:17:41.519Z,100670.03
2023-08-31T21:20:44.144Z,100676.31
2023-08-31T21:23:45.767Z,100670.00
2023-08-31T21:26:47.425Z,100672.81
2023-08-31T21:29:49.045Z,100675.94
2023-08-31T21:32:50.711Z,100676.41
2023-08-31T21:35:52.451Z,100677.09
2023-08-31T21:38:54.110Z,100687.41
2023-08-31T21:41:55.822Z,100687.22
2023-08-31T21:45:00.013Z,100691.88
2023-08-31T21:48:02.030Z,100681.56
2023-08-31T21:51:03.859Z,100693.72
2023-08-31T21:54:05.622Z,100698.50
2023-08-31T21:57:07.289Z,100697.34
2023-08-31T22:00:13.983Z,100683.19
2023-08-31T22:03:15.846Z,100691.16
2023-08-31T22:06:17.891Z,100697.66
2023-08-31T22:09:21.433Z,100696.09
2023-08-31T22:12:23.237Z,100705.94
2023-08-31T22:15:27.912Z,100701.94
2023-08-31T22:18:29.807Z,100698.09
2023-08-31T22:21:31.549Z,100701.75
2023-08-31T22:24:33.246Z,100701.63
2023-08-31T22:27:35.563Z,100698.31
2023-08-31T22:30:38.692Z,100706.31
2023-08-31T22:33:40.403Z,100701.50
2023-08-31T22:36:42.055Z,100695.69
2023-08-31T22:39:43.681Z,100696.34
2023-08-31T22:42:45.485Z,100715.81
2023-08-31T22:45:58.375Z,100710.16
2023-08-31T22:49:00.107Z,100711.03
2023-08-31T22:52:01.796Z,100715.47
2023-08-31T22:55:05.098Z,100711.97
2023-08-31T22:58:06.781Z,100703.34
2023-08-31T23:01:08.643Z,100717.97
2023-08-31T23:04:10.279Z,100707.50
2023-08-31T23:07:13.126Z,100710.50
2023-08-31T23:10:26.715Z,100714.16
2023-08-31T23:13:32.906Z,100711.97
2023-08-31T23:16:34.684Z,100719.16
2023-08-31T23:19:36.285Z,100726.31
2023-08-31T23:22:37.882Z,100726.31
2023-08-31T23:25:39.815Z,100729.97
2023-08-31T23:28:45.784Z,100722.50
2023-08-31T23:31:47.394Z,100729.00
2023-08-31T23:34:48.965Z,100731.47
2023-08-31T23:37:50.588Z,100732.63
2023-08-31T23:40:57.384Z,100742.63
2023-08-31T23:43:58.978Z,100728.97
2023-08-31T23:47:00.735Z,100737.28
2023-08-31T23:50:02.390Z,100735.59
2023-08-31T23:53:04.188Z,100750.44
2023-08-31T23:56:06.359Z,100755.13
2023-08-31T23:59:08.858Z,100757.25
